createdAt,value
2018-06-13T00:00:42.401Z,3.63
2018-06-13T00:03:11.419Z,4.20
2018-06-13T00:05:40.360Z,3.80
2018-06-13T00:08:09.364Z,3.90
2018-06-13T00:10:38.371Z,4.03
2018-06-13T00:13:07.367Z,4.23
2018-06-13T00:15:36.381Z,4.30
2018-06-13T00:18:05.486Z,4.80
2018-06-13T00:20:34.492Z,4.50
2018-06-13T00:23:03.479Z,4.30
2018-06-13T00:25:32.412Z,4.53
2018-06-13T00:28:01.372Z,4.67
2018-06-13T00:30:30.308Z,4.30
2018-06-13T00:32:59.421Z,4.63
2018-06-13T00:35:28.437Z,4.40
2018-06-13T00:37:57.436Z,4.63
2018-06-13T00:40:26.461Z,4.20
2018-06-13T00:42:55.391Z,4.10
2018-06-13T00:45:24.485Z,4.23
2018-06-13T00:47:53.512Z,4.23
2018-06-13T00:50:22.553Z,4.67
2018-06-13T00:52:51.504Z,4.10
2018-06-13T00:55:20.450Z,4.40
2018-06-13T00:57:49.513Z,4.90
2018-06-13T01:00:18.473Z,4.43
2018-06-13T01:02:47.544Z,4.63
2018-06-13T01:05:16.557Z,3.60
2018-06-13T01:07:45.520Z,3.90
2018-06-13T01:10:14.620Z,3.43
2018-06-13T01:12:43.685Z,3.87
2018-06-13T01:15:12.708Z,4.47
2018-06-13T01:17:42.547Z,3.60
2018-06-13T01:20:11.560Z,3.70
2018-06-13T01:22:40.511Z,3.87
2018-06-13T01:25:09.520Z,3.40
2018-06-13T01:27:38.602Z,4.77
2018-06-13T01:30:07.522Z,4.07
2018-06-13T01:32:36.527Z,3.97
2018-06-13T01:35:05.545Z,3.53
2018-06-13T01:37:34.561Z,4.33
2018-06-13T01:40:03.589Z,4.53
2018-06-13T01:42:32.593Z,4.00
2018-06-13T01:45:01.647Z,4.30
2018-06-13T01:47:30.604Z,3.30
2018-06-13T01:49:59.608Z,3.80
2018-06-13T01:52:28.612Z,4.00
2018-06-13T01:54:57.556Z,4.67
2018-06-13T01:57:26.546Z,3.53
2018-06-13T01:59:55.545Z,4.50
2018-06-13T02:02:24.603Z,3.70
2018-06-13T02:04:53.670Z,5.13
2018-06-13T02:07:22.625Z,3.87
2018-06-13T02:09:51.781Z,3.77
2018-06-13T02:12:19.660Z,4.37
2018-06-13T02:14:48.660Z,4.57
2018-06-13T02:17:17.616Z,4.20
2018-06-13T02:19:46.610Z,3.87
2018-06-13T02:22:15.721Z,4.30
2018-06-13T02:24:44.709Z,3.83
2018-06-13T02:27:13.709Z,3.60
2018-06-13T02:29:42.776Z,3.70
2018-06-13T02:32:11.815Z,3.90
2018-06-13T02:34:40.829Z,4.07
2018-06-13T02:37:09.837Z,4.53
2018-06-13T02:39:38.804Z,3.60
2018-06-13T02:42:07.816Z,4.30
2018-06-13T02:44:36.763Z,4.27
2018-06-13T02:47:05.753Z,3.50
2018-06-13T02:49:34.744Z,4.70
2018-06-13T02:52:03.723Z,3.63
2018-06-13T02:54:32.684Z,4.77
2018-06-13T02:57:01.632Z,4.30
2018-06-13T02:59:30.632Z,4.70
2018-06-13T03:01:59.643Z,5.13
2018-06-13T03:04:28.665Z,5.30
2018-06-13T03:06:57.677Z,5.23
2018-06-13T03:09:26.688Z,5.10
2018-06-13T03:11:55.756Z,4.00
2018-06-13T03:14:24.746Z,4.40
2018-06-13T03:16:53.720Z,4.33
2018-06-13T03:19:22.723Z,4.60
2018-06-13T03:21:51.704Z,4.63
2018-06-13T03:24:20.703Z,3.60
2018-06-13T03:26:49.801Z,4.00
2018-06-13T03:29:18.829Z,4.23
2018-06-13T03:31:47.849Z,3.93
2018-06-13T03:34:16.800Z,4.00
2018-06-13T03:36:45.799Z,3.60
2018-06-13T03:39:14.758Z,4.50
2018-06-13T03:41:43.756Z,5.83
2018-06-13T03:44:12.718Z,5.50
2018-06-13T03:46:41.665Z,4.60
2018-06-13T03:49:10.785Z,5.10
2018-06-13T03:51:39.868Z,5.50
2018-06-13T03:54:08.877Z,8.33
2018-06-13T03:56:37.961Z,14.57
2018-06-13T03:59:06.996Z,6.50
2018-06-13T04:01:36.000Z,5.70
2018-06-13T04:04:04.948Z,4.40
2018-06-13T04:06:33.889Z,4.10
2018-06-13T04:09:03.028Z,3.80
2018-06-13T04:11:32.009Z,3.50
2018-06-13T04:14:01.020Z,4.13
2018-06-13T04:16:30.009Z,3.10
2018-06-13T04:18:59.081Z,3.93
2018-06-13T04:21:28.106Z,4.67
2018-06-13T04:23:57.036Z,3.80
2018-06-13T04:26:26.079Z,4.10
2018-06-13T04:28:55.212Z,3.67
2018-06-13T04:31:24.174Z,2.70
2018-06-13T04:33:53.180Z,3.90
2018-06-13T04:36:22.176Z,3.70
2018-06-13T04:38:51.317Z,3.27
2018-06-13T04:41:20.333Z,3.50
2018-06-13T04:43:49.331Z,3.40
2018-06-13T04:46:18.316Z,3.90
2018-06-13T04:48:47.401Z,4.47
2018-06-13T04:51:16.489Z,2.60
2018-06-13T04:53:45.484Z,3.20
2018-06-13T04:56:14.439Z,3.17
2018-06-13T04:58:43.469Z,3.30
2018-06-13T05:01:12.419Z,3.13
2018-06-13T05:03:41.497Z,2.97
2018-06-13T05:06:10.465Z,2.80
2018-06-13T05:08:39.427Z,3.12
2018-06-13T05:11:08.449Z,2.45
2018-06-13T05:13:37.412Z,3.00
2018-06-13T05:16:06.427Z,2.77
2018-06-13T05:18:35.385Z,2.92
2018-06-13T05:21:04.332Z,2.80
2018-06-13T05:23:33.337Z,3.27
2018-06-13T05:26:02.310Z,2.92
2018-06-13T05:28:31.324Z,2.42
2018-06-13T05:31:00.263Z,3.05
2018-06-13T05:33:29.265Z,2.25
2018-06-13T05:35:58.272Z,3.00
2018-06-13T05:38:27.240Z,2.40
2018-06-13T05:40:56.415Z,2.80
2018-06-13T05:43:25.470Z,2.72
2018-06-13T05:45:54.449Z,2.92
2018-06-13T05:48:23.470Z,3.02
2018-06-13T05:50:52.537Z,2.65
2018-06-13T05:53:21.548Z,4.60
2018-06-13T05:55:50.499Z,2.70
2018-06-13T05:58:19.526Z,3.17
2018-06-13T06:00:48.544Z,2.80
2018-06-13T06:03:17.605Z,2.90
2018-06-13T06:05:46.739Z,2.15
2018-06-13T06:08:15.700Z,2.87
2018-06-13T06:10:44.750Z,2.67
2018-06-13T06:13:13.779Z,2.85
2018-06-13T06:15:42.784Z,2.98
2018-06-13T06:18:11.812Z,3.33
2018-06-13T06:20:40.906Z,2.90
2018-06-13T06:23:10.047Z,2.60
2018-06-13T06:25:39.008Z,3.30
2018-06-13T06:28:08.014Z,2.70
2018-06-13T06:30:37.040Z,3.33
2018-06-13T06:33:06.059Z,3.05
2018-06-13T06:35:35.130Z,2.85
2018-06-13T06:38:04.155Z,2.55
2018-06-13T06:40:33.112Z,3.12
2018-06-13T06:43:02.116Z,2.98
2018-06-13T06:45:31.225Z,3.20
2018-06-13T06:48:00.307Z,2.95
2018-06-13T06:50:29.266Z,2.90
2018-06-13T06:52:58.336Z,3.62
2018-06-13T06:55:27.399Z,3.10
2018-06-13T06:57:56.320Z,3.70
2018-06-13T07:00:25.259Z,2.95
2018-06-13T07:02:54.233Z,2.98
2018-06-13T07:05:23.229Z,4.22
2018-06-13T07:07:52.289Z,3.35
2018-06-13T07:10:21.248Z,3.20
2018-06-13T07:12:50.191Z,3.35
2018-06-13T07:15:19.275Z,3.33
2018-06-13T07:17:48.332Z,3.72
2018-06-13T07:20:17.412Z,3.58
2018-06-13T07:22:46.371Z,3.20
2018-06-13T07:25:15.370Z,4.25
2018-06-13T07:27:44.388Z,3.55
2018-06-13T07:30:13.398Z,3.27
2018-06-13T07:32:42.449Z,3.17
2018-06-13T07:35:11.404Z,3.67
2018-06-13T07:37:40.429Z,3.67
2018-06-13T07:40:09.506Z,3.25
2018-06-13T07:42:38.500Z,3.40
2018-06-13T07:45:07.564Z,3.52
2018-06-13T07:47:36.524Z,3.25
2018-06-13T07:50:05.632Z,3.77
2018-06-13T07:52:34.583Z,3.52
2018-06-13T07:55:03.582Z,4.20
2018-06-13T07:57:32.616Z,4.65
2018-06-13T08:00:01.629Z,4.60
2018-06-13T08:02:30.576Z,3.80
2018-06-13T08:04:59.528Z,4.17
2018-06-13T08:07:28.542Z,4.53
2018-06-13T08:09:57.661Z,4.30
2018-06-13T08:12:26.637Z,5.47
2018-06-13T08:14:55.642Z,3.90
2018-06-13T08:17:24.668Z,4.73
2018-06-13T08:19:53.769Z,5.23
2018-06-13T08:22:22.792Z,4.80
2018-06-13T08:24:53.749Z,5.57
2018-06-13T08:27:22.783Z,4.90
2018-06-13T08:29:51.808Z,4.90
2018-06-13T08:32:20.851Z,5.90
2018-06-13T08:34:49.853Z,5.60
2018-06-13T08:37:18.849Z,5.10
2018-06-13T08:39:48.024Z,5.10
2018-06-13T08:42:16.957Z,5.47
2018-06-13T08:44:46.014Z,4.63
2018-06-13T08:47:15.023Z,5.90
2018-06-13T08:49:44.029Z,4.90
2018-06-13T08:52:13.149Z,5.07
2018-06-13T08:54:42.156Z,5.60
2018-06-13T08:57:11.117Z,6.20
2018-06-13T08:59:40.202Z,4.90
2018-06-13T09:02:09.194Z,4.83
2018-06-13T09:04:38.146Z,5.60
2018-06-13T09:07:07.205Z,4.53
2018-06-13T09:09:36.217Z,4.83
2018-06-13T09:12:05.291Z,5.47
2018-06-13T09:14:34.284Z,4.33
2018-06-13T09:17:03.276Z,5.37
2018-06-13T09:19:32.347Z,4.70
2018-06-13T09:22:01.300Z,5.30
2018-06-13T09:24:30.381Z,5.87
2018-06-13T09:26:59.327Z,4.67
2018-06-13T09:29:28.328Z,4.62
2018-06-13T09:31:57.415Z,4.20
2018-06-13T09:34:26.557Z,4.83
2018-06-13T09:36:55.580Z,5.00
2018-06-13T09:39:24.600Z,5.07
2018-06-13T09:41:58.634Z,4.55
2018-06-13T09:44:27.644Z,5.00
2018-06-13T09:46:56.580Z,4.67
2018-06-13T09:49:25.540Z,4.97
2018-06-13T09:51:54.581Z,5.42
2018-06-13T09:54:23.593Z,4.33
2018-06-13T09:56:52.612Z,4.95
2018-06-13T09:59:21.981Z,4.40
2018-06-13T10:01:56.125Z,4.60
2018-06-13T10:04:25.145Z,4.42
2018-06-13T10:06:54.179Z,4.22
2018-06-13T10:09:23.128Z,4.70
2018-06-13T10:11:52.127Z,4.75
2018-06-13T10:14:21.088Z,5.00
2018-06-13T10:16:50.138Z,4.60
2018-06-13T10:19:19.190Z,4.62
2018-06-13T10:21:48.262Z,4.20
2018-06-13T10:24:17.277Z,4.05
2018-06-13T10:26:46.260Z,4.70
2018-06-13T10:29:15.219Z,4.12
2018-06-13T10:31:44.350Z,4.05
2018-06-13T10:34:13.359Z,4.67
2018-06-13T10:36:42.306Z,4.67
2018-06-13T10:39:11.248Z,3.90
2018-06-13T10:41:40.184Z,4.05
2018-06-13T10:44:09.201Z,4.08
2018-06-13T10:46:38.264Z,3.67
2018-06-13T10:49:07.272Z,4.12
2018-06-13T10:51:36.216Z,3.90
2018-06-13T10:54:05.228Z,4.28
2018-06-13T10:56:34.342Z,3.90
2018-06-13T10:59:03.304Z,4.20
2018-06-13T11:01:32.305Z,5.35
2018-06-13T11:04:01.309Z,4.30
2018-06-13T11:06:30.255Z,4.42
2018-06-13T11:08:59.333Z,3.87
2018-06-13T11:11:28.296Z,4.80
2018-06-13T11:13:57.291Z,4.67
2018-06-13T11:16:26.309Z,4.30
2018-06-13T11:18:55.341Z,5.22
2018-06-13T11:21:24.497Z,4.30
2018-06-13T11:23:53.560Z,4.37
2018-06-13T11:26:22.587Z,3.72
2018-06-13T11:28:51.617Z,4.12
2018-06-13T11:31:20.650Z,4.72
2018-06-13T11:33:49.745Z,4.10
2018-06-13T11:36:18.813Z,4.47
2018-06-13T11:38:47.767Z,3.90
2018-06-13T11:41:16.722Z,4.10
2018-06-13T11:43:45.773Z,4.00
2018-06-13T11:46:14.841Z,4.25
2018-06-13T11:48:43.804Z,4.05
2018-06-13T11:51:12.812Z,3.65
2018-06-13T11:53:42.090Z,3.80
2018-06-13T11:56:11.001Z,4.10
2018-06-13T11:58:40.067Z,3.67
2018-06-13T12:01:09.138Z,3.27
2018-06-13T12:03:38.234Z,3.92
2018-06-13T12:06:07.269Z,3.70
2018-06-13T12:08:37.275Z,3.00
2018-06-13T12:11:06.291Z,3.85
2018-06-13T12:13:35.294Z,3.55
2018-06-13T12:16:04.308Z,2.95
2018-06-13T12:19:04.549Z,3.40
2018-06-13T12:21:33.561Z,3.90
2018-06-13T12:24:02.625Z,3.42
2018-06-13T12:26:31.640Z,3.45
2018-06-13T12:29:00.644Z,3.35
2018-06-13T12:31:29.619Z,3.80
2018-06-13T12:33:58.616Z,2.98
2018-06-13T12:36:27.689Z,3.62
2018-06-13T12:38:56.710Z,3.17
2018-06-13T12:41:25.657Z,3.22
2018-06-13T12:43:54.624Z,4.28
2018-06-13T12:46:23.573Z,4.33
2018-06-13T12:48:52.576Z,4.97
2018-06-13T12:51:21.520Z,4.55
2018-06-13T12:53:50.524Z,5.70
2018-06-13T12:56:19.462Z,4.72
2018-06-13T12:58:48.528Z,4.97
2018-06-13T13:01:17.517Z,4.33
2018-06-13T13:03:46.462Z,4.17
2018-06-13T13:06:15.497Z,3.90
2018-06-13T13:08:44.504Z,4.15
2018-06-13T13:11:13.511Z,3.62
2018-06-13T13:13:42.520Z,3.47
2018-06-13T13:16:11.526Z,4.33
2018-06-13T13:18:40.543Z,3.75
2018-06-13T13:21:09.707Z,4.28
2018-06-13T13:23:38.719Z,3.92
2018-06-13T13:26:07.725Z,4.17
2018-06-13T13:28:36.747Z,4.33
2018-06-13T13:31:05.723Z,4.20
2018-06-13T13:33:34.736Z,5.03
2018-06-13T13:36:03.745Z,3.85
2018-06-13T13:38:32.858Z,4.90
2018-06-13T13:41:01.882Z,4.80
2018-06-13T13:43:30.881Z,5.45
2018-06-13T13:45:59.888Z,4.65
2018-06-13T13:48:28.921Z,4.33
2018-06-13T13:50:58.012Z,4.60
2018-06-13T13:53:27.085Z,4.70
2018-06-13T13:55:56.091Z,4.67
2018-06-13T13:58:25.076Z,4.30
2018-06-13T14:00:54.162Z,4.58
2018-06-13T14:03:23.349Z,4.70
2018-06-13T14:05:52.353Z,9.25
2018-06-13T14:08:21.395Z,5.90
2018-06-13T14:10:50.468Z,4.87
2018-06-13T14:13:19.462Z,5.17
2018-06-13T14:15:48.607Z,5.40
2018-06-13T14:18:17.556Z,5.73
2018-06-13T14:20:46.552Z,5.57
2018-06-13T14:23:17.118Z,5.23
2018-06-13T14:25:46.117Z,5.00
2018-06-13T14:28:15.180Z,5.43
2018-06-13T14:30:44.266Z,5.53
2018-06-13T14:33:13.521Z,6.20
2018-06-13T14:35:42.549Z,5.30
2018-06-13T14:38:11.582Z,8.30
2018-06-13T14:40:40.620Z,10.83
2018-06-13T14:43:09.580Z,11.97
2018-06-13T14:45:38.544Z,14.73
2018-06-13T14:48:07.580Z,8.53
2018-06-13T14:50:36.532Z,10.17
2018-06-13T14:53:05.621Z,24.40
2018-06-13T14:55:40.378Z,21.33
2018-06-13T14:58:09.624Z,14.50
2018-06-13T15:00:38.657Z,8.53
2018-06-13T15:03:07.739Z,10.97
2018-06-13T15:05:36.724Z,8.50
2018-06-13T15:08:05.687Z,9.23
2018-06-13T15:10:34.805Z,7.80
2018-06-13T15:13:03.821Z,6.20
2018-06-13T15:15:32.835Z,7.90
2018-06-13T15:18:01.801Z,5.93
2018-06-13T15:20:30.793Z,8.67
2018-06-13T15:22:59.857Z,8.30
2018-06-13T15:25:28.925Z,6.67
2018-06-13T15:27:57.964Z,7.80
2018-06-13T15:30:26.969Z,6.37
2018-06-13T15:32:55.956Z,6.90
2018-06-13T15:35:25.028Z,6.67
2018-06-13T15:37:53.993Z,6.10
2018-06-13T15:40:23.084Z,5.43
2018-06-13T15:42:52.213Z,5.00
2018-06-13T15:45:21.233Z,6.00
2018-06-13T15:47:50.301Z,6.20
2018-06-13T15:50:19.289Z,5.60
2018-06-13T15:52:48.316Z,5.70
2018-06-13T15:55:17.297Z,4.83
2018-06-13T15:57:46.384Z,5.10
2018-06-13T16:00:15.448Z,5.30
2018-06-13T16:02:44.454Z,5.33
2018-06-13T16:05:13.520Z,5.60
2018-06-13T16:07:42.662Z,4.47
2018-06-13T16:10:11.781Z,5.63
2018-06-13T16:12:40.943Z,4.30
2018-06-13T16:15:10.000Z,4.87
2018-06-13T16:17:39.021Z,5.30
2018-06-13T16:20:08.005Z,5.00
2018-06-13T16:22:37.008Z,5.50
2018-06-13T16:25:06.060Z,5.90
2018-06-13T16:27:35.026Z,5.10
2018-06-13T16:30:04.157Z,5.17
2018-06-13T16:32:33.213Z,4.90
2018-06-13T16:35:02.289Z,5.53
2018-06-13T16:37:31.413Z,5.50
2018-06-13T16:40:01.185Z,5.80
2018-06-13T16:42:30.240Z,5.90
2018-06-13T16:44:59.262Z,5.40
2018-06-13T16:47:28.208Z,5.37
2018-06-13T16:49:57.278Z,5.20
2018-06-13T16:52:37.157Z,5.07
2018-06-13T16:55:24.690Z,5.33
2018-06-13T16:57:53.780Z,5.47
2018-06-13T17:00:23.261Z,5.93
2018-06-13T17:02:52.608Z,6.63
2018-06-13T17:05:21.560Z,4.97
2018-06-13T17:07:50.676Z,5.27
2018-06-13T17:10:19.799Z,5.17
2018-06-13T17:12:48.810Z,6.80
2018-06-13T17:15:17.760Z,5.80
2018-06-13T17:17:46.754Z,5.80
2018-06-13T17:20:15.821Z,6.70
2018-06-13T17:22:44.899Z,6.00
2018-06-13T17:25:13.854Z,7.10
2018-06-13T17:27:44.943Z,5.47
2018-06-13T17:30:14.025Z,7.00
2018-06-13T17:32:43.096Z,7.30
2018-06-13T17:35:12.166Z,6.80
2018-06-13T17:37:41.153Z,7.50
2018-06-13T17:40:10.157Z,7.83
2018-06-13T17:42:39.290Z,7.67
2018-06-13T17:45:08.309Z,7.10
2018-06-13T17:47:37.361Z,8.30
2018-06-13T17:50:06.298Z,8.07
2018-06-13T17:52:35.272Z,7.53
2018-06-13T17:55:04.273Z,8.47
2018-06-13T17:57:33.390Z,10.07
2018-06-13T18:00:02.375Z,10.13
2018-06-13T18:02:31.388Z,7.30
2018-06-13T18:05:00.436Z,7.67
2018-06-13T18:07:29.401Z,8.17
2018-06-13T18:09:58.380Z,8.77
2018-06-13T18:12:27.436Z,7.33
2018-06-13T18:14:56.456Z,7.63
2018-06-13T18:17:25.477Z,8.80
2018-06-13T18:19:54.496Z,8.10
2018-06-13T18:22:23.553Z,7.80
2018-06-13T18:24:52.588Z,7.73
2018-06-13T18:27:21.612Z,7.63
2018-06-13T18:29:50.605Z,6.93
2018-06-13T18:32:19.612Z,7.60
2018-06-13T18:34:48.703Z,6.00
2018-06-13T18:37:17.774Z,5.47
2018-06-13T18:39:46.776Z,6.50
2018-06-13T18:42:15.696Z,5.97
2018-06-13T18:44:44.780Z,5.40
2018-06-13T18:47:13.870Z,5.63
2018-06-13T18:49:42.910Z,4.83
2018-06-13T18:52:11.933Z,5.97
2018-06-13T18:54:41.033Z,5.70
2018-06-13T18:57:10.221Z,4.67
2018-06-13T18:59:39.280Z,4.93
2018-06-13T19:02:08.364Z,7.43
2018-06-13T19:04:37.414Z,4.67
2018-06-13T19:07:06.361Z,6.10
2018-06-13T19:09:35.326Z,6.03
2018-06-13T19:12:04.352Z,4.60
2018-06-13T19:14:33.301Z,5.50
2018-06-13T19:17:02.274Z,5.13
2018-06-13T19:19:31.396Z,4.87
2018-06-13T19:22:00.425Z,5.13
2018-06-13T19:24:29.437Z,6.13
2018-06-13T19:26:58.396Z,4.80
2018-06-13T19:29:27.749Z,4.83
2018-06-13T19:31:56.753Z,5.60
2018-06-13T19:34:25.837Z,5.60
2018-06-13T19:36:54.899Z,5.00
2018-06-13T19:39:23.997Z,5.60
2018-06-13T19:41:52.951Z,5.47
2018-06-13T19:44:21.996Z,4.80
2018-06-13T19:46:51.069Z,5.50
2018-06-13T19:49:20.103Z,5.33
2018-06-13T19:51:49.096Z,7.20
2018-06-13T19:54:23.299Z,5.63
2018-06-13T19:56:52.317Z,6.80
2018-06-13T19:59:21.304Z,6.03
2018-06-13T20:01:50.678Z,5.13
2018-06-13T20:04:24.809Z,5.53
2018-06-13T20:06:53.812Z,6.20
2018-06-13T20:09:22.820Z,5.40
2018-06-13T20:11:51.776Z,5.90
2018-06-13T20:14:25.820Z,5.13
2018-06-13T20:16:59.905Z,4.97
2018-06-13T20:19:35.571Z,4.60
2018-06-13T20:22:04.523Z,4.93
2018-06-13T20:24:33.565Z,4.53
2018-06-13T20:27:07.557Z,4.80
2018-06-13T20:29:41.432Z,5.23
2018-06-13T20:32:10.376Z,4.80
2018-06-13T20:34:39.365Z,4.20
2018-06-13T20:37:08.381Z,5.27
2018-06-13T20:39:37.400Z,4.93
2018-06-13T20:42:06.401Z,4.20
2018-06-13T20:44:35.384Z,5.80
2018-06-13T20:47:04.319Z,9.67
2018-06-13T20:49:33.460Z,10.87
2018-06-13T20:52:02.521Z,9.03
2018-06-13T20:54:31.496Z,9.00
2018-06-13T20:57:00.468Z,8.60
2018-06-13T20:59:29.435Z,8.33
2018-06-13T21:01:58.439Z,9.07
2018-06-13T21:04:27.380Z,6.07
2018-06-13T21:06:56.384Z,6.77
2018-06-13T21:09:25.416Z,6.10
2018-06-13T21:11:54.364Z,7.10
2018-06-13T21:14:23.304Z,7.63
2018-06-13T21:16:52.320Z,6.73
2018-06-13T21:19:21.286Z,6.37
2018-06-13T21:21:50.235Z,6.63
2018-06-13T21:24:19.280Z,6.03
2018-06-13T21:26:48.450Z,7.07
2018-06-13T21:29:17.411Z,6.17
2018-06-13T21:31:46.528Z,6.53
2018-06-13T21:34:15.475Z,4.90
2018-06-13T21:36:44.416Z,5.40
2018-06-13T21:39:13.488Z,5.60
2018-06-13T21:41:42.592Z,5.83
2018-06-13T21:44:11.619Z,6.03
2018-06-13T21:46:40.581Z,6.47
2018-06-13T21:49:09.621Z,6.40
2018-06-13T21:51:38.743Z,6.63
2018-06-13T21:54:07.674Z,6.63
2018-06-13T21:56:36.608Z,6.67
2018-06-13T21:59:05.728Z,5.90
2018-06-13T22:01:34.667Z,6.07
2018-06-13T22:04:03.657Z,6.03
2018-06-13T22:06:32.590Z,5.27
2018-06-13T22:09:01.645Z,6.00
2018-06-13T22:11:30.700Z,6.27
2018-06-13T22:13:59.705Z,5.97
2018-06-13T22:16:28.705Z,6.23
2018-06-13T22:18:57.885Z,6.00
2018-06-13T22:21:26.875Z,6.33
2018-06-13T22:23:55.818Z,4.67
2018-06-13T22:26:24.800Z,5.40
2018-06-13T22:28:53.752Z,5.37
2018-06-13T22:31:22.684Z,4.60
2018-06-13T22:33:51.740Z,6.77
2018-06-13T22:36:20.824Z,5.50
2018-06-13T22:38:50.283Z,6.57
2018-06-13T22:41:19.913Z,5.70
2018-06-13T22:43:48.875Z,5.80
2018-06-13T22:46:17.878Z,5.47
2018-06-13T22:48:46.843Z,6.27
2018-06-13T22:51:15.812Z,6.27
2018-06-13T22:53:44.860Z,5.30
2018-06-13T22:56:13.864Z,5.47
2018-06-13T22:58:42.868Z,6.50
2018-06-13T23:01:12.825Z,5.23
2018-06-13T23:03:41.759Z,6.00
2018-06-13T23:06:11.584Z,5.50
2018-06-13T23:08:40.737Z,5.07
2018-06-13T23:11:09.759Z,4.87
2018-06-13T23:13:38.749Z,5.40
2018-06-13T23:16:07.811Z,5.73
2018-06-13T23:18:36.885Z,6.00
2018-06-13T23:21:05.812Z,6.10
2018-06-13T23:23:34.905Z,5.63
2018-06-13T23:26:03.903Z,7.70
2018-06-13T23:28:32.923Z,5.37
2018-06-13T23:31:01.909Z,5.53
2018-06-13T23:33:30.879Z,6.10
2018-06-13T23:35:59.827Z,5.83
2018-06-13T23:38:28.891Z,6.10
2018-06-13T23:40:57.940Z,5.40
2018-06-13T23:43:27.016Z,7.03
2018-06-13T23:45:55.975Z,5.50
2018-06-13T23:48:24.968Z,6.27
2018-06-13T23:50:53.979Z,5.40
2018-06-13T23:53:22.987Z,5.80
2018-06-13T23:55:52.024Z,5.17
2018-06-13T23:58:21.016Z,5.57
